createdAt,value
2022-11-24T00:04:01.405Z,99397.88
2022-11-24T00:14:05.575Z,99408.31
2022-11-24T00:24:11.125Z,99415.41
2022-11-24T00:34:15.746Z,99417.19
2022-11-24T00:44:20.205Z,99427.53
2022-11-24T00:54:23.495Z,99444.16
2022-11-24T01:04:28.152Z,99448.44
2022-11-24T01:14:33.051Z,99451.78
2022-11-24T01:24:37.733Z,99450.13
2022-11-24T01:34:40.864Z,99452.69
2022-11-24T01:44:45.378Z,99453.66
2022-11-24T01:54:51.294Z,99462.25
2022-11-24T02:04:56.415Z,99472.63
2022-11-24T02:14:59.880Z,99464.72
2022-11-24T02:25:08.538Z,99468.50
2022-11-24T02:35:14.451Z,99467.31
2022-11-24T02:45:18.078Z,99471.81
2022-11-24T02:55:23.564Z,99469.97
2022-11-24T03:05:27.089Z,99466.50
2022-11-24T03:15:31.687Z,99470.75
2022-11-24T03:25:34.837Z,99477.56
2022-11-24T03:35:39.321Z,99484.66
2022-11-24T03:45:46.524Z,99497.69
2022-11-24T03:55:51.294Z,99495.06
2022-11-24T04:05:54.602Z,99501.03
2022-11-24T04:15:59.089Z,99516.25
2022-11-24T04:26:02.545Z,99511.88
2022-11-24T04:36:07.735Z,99529.25
2022-11-24T04:46:12.363Z,99543.91
2022-11-24T04:56:16.929Z,99551.16
2022-11-24T05:06:20.347Z,99557.22
2022-11-24T05:16:25.001Z,99559.00
2022-11-24T05:26:28.275Z,99577.97
2022-11-24T05:37:01.936Z,99589.03
2022-11-24T05:47:05.334Z,99598.69
2022-11-24T05:57:09.895Z,99625.00
2022-11-24T06:07:13.659Z,99640.03
2022-11-24T06:17:18.157Z,99650.13
2022-11-24T06:27:21.359Z,99649.56
2022-11-24T06:37:26.860Z,99657.91
2022-11-24T06:47:30.362Z,99667.25
2022-11-24T06:57:35.764Z,99664.81
2022-11-24T07:07:38.992Z,99660.56
2022-11-24T07:17:43.553Z,99705.50
2022-11-24T07:27:46.670Z,99703.66
2022-11-24T07:37:51.806Z,99720.09
2022-11-24T07:47:55.433Z,99713.13
2022-11-24T07:58:01.935Z,99721.97
2022-11-24T08:08:05.547Z,99715.72
2022-11-24T08:18:10.497Z,99737.31
2022-11-24T08:28:13.533Z,99748.53
2022-11-24T08:38:18.031Z,99762.41
2022-11-24T08:48:21.104Z,99769.19
2022-11-24T08:58:25.580Z,99763.72
2022-11-24T09:08:30.631Z,99763.53
2022-11-24T09:18:35.364Z,99773.37
2022-11-24T09:28:38.582Z,99765.75
2022-11-24T09:38:43.218Z,99772.00
2022-11-24T09:48:49.188Z,99764.78
2022-11-24T09:58:57.531Z,99777.91
2022-11-24T10:09:26.226Z,99786.16
2022-11-24T10:19:37.487Z,99785.25
2022-11-24T10:29:42.280Z,99805.06
2022-11-24T10:39:59.700Z,99805.19
2022-11-24T10:50:05.287Z,99807.59
2022-11-24T11:00:34.257Z,99821.81
2022-11-24T11:10:37.443Z,99828.66
2022-11-24T11:20:41.833Z,99842.78
2022-11-24T11:31:17.537Z,99846.59
2022-11-24T11:41:27.725Z,99856.13
2022-11-24T11:51:44.494Z,99877.03
2022-11-24T12:02:20.178Z,99872.53
2022-11-24T12:12:38.905Z,99871.16
2022-11-24T12:22:48.238Z,99878.09
2022-11-24T12:33:11.558Z,99878.06
2022-11-24T12:43:21.171Z,99879.34
2022-11-24T12:53:26.175Z,99882.97
2022-11-24T13:03:40.549Z,99890.94
2022-11-24T13:13:58.707Z,99884.75
2022-11-24T13:24:04.489Z,99901.78
2022-11-24T13:34:40.748Z,99901.78
2022-11-24T13:44:56.383Z,99903.63
2022-11-24T13:54:59.554Z,99909.56
2022-11-24T14:05:04.178Z,99934.31
2022-11-24T14:15:22.498Z,99943.00
2022-11-24T14:25:30.178Z,99956.22
2022-11-24T14:35:34.888Z,99978.78
2022-11-24T14:45:39.598Z,99979.66
2022-11-24T14:55:43.036Z,99991.88
2022-11-24T15:05:55.931Z,99991.94
2022-11-24T15:16:03.026Z,100000.56
2022-11-24T15:26:33.167Z,100024.25
2022-11-24T15:36:38.609Z,100027.81
2022-11-24T15:46:43.099Z,100035.41
2022-11-24T15:56:46.263Z,100045.25
2022-11-24T16:06:50.718Z,100049.72
2022-11-24T16:16:54.846Z,100055.00
2022-11-24T16:26:59.496Z,100047.13
2022-11-24T16:37:02.715Z,100053.91
2022-11-24T16:47:07.647Z,100068.06
2022-11-24T16:57:15.041Z,100079.34
2022-11-24T17:07:19.824Z,100088.88
2022-11-24T17:17:25.941Z,100085.34
2022-11-24T17:27:30.807Z,100105.34
2022-11-24T17:37:36.986Z,100109.72
2022-11-24T17:47:42.656Z,100128.34
2022-11-24T17:57:46.076Z,100133.91
2022-11-24T18:07:51.034Z,100140.78
2022-11-24T18:17:54.755Z,100158.19
2022-11-24T18:27:59.920Z,100172.13
2022-11-24T18:38:03.194Z,100196.16
2022-11-24T18:48:09.528Z,100208.09
2022-11-24T18:58:15.247Z,100219.34
2022-11-24T19:08:20.043Z,100235.22
2022-11-24T19:18:23.418Z,100236.06
2022-11-24T19:28:28.151Z,100256.81
2022-11-24T19:38:32.160Z,100258.09
2022-11-24T19:48:39.192Z,100266.34
2022-11-24T19:58:42.648Z,100265.06
2022-11-24T20:08:47.404Z,100286.62
2022-11-24T20:18:50.437Z,100304.25
2022-11-24T20:28:56.814Z,100314.91
2022-11-24T20:39:01.359Z,100324.50
2022-11-24T20:49:08.191Z,100334.88
2022-11-24T20:59:13.609Z,100341.81
2022-11-24T21:09:18.220Z,100348.53
2022-11-24T21:19:21.660Z,100361.88
2022-11-24T21:29:26.208Z,100369.19
2022-11-24T21:39:29.608Z,100363.09
2022-11-24T21:49:34.054Z,100377.16
2022-11-24T21:59:37.167Z,100397.31
2022-11-24T22:09:41.672Z,100401.75
2022-11-24T22:19:44.797Z,100396.72
2022-11-24T22:29:53.985Z,100394.53
2022-11-24T22:39:57.414Z,100393.06
2022-11-24T22:50:01.825Z,100412.66
2022-11-24T23:00:05.541Z,100420.97
2022-11-24T23:10:11.120Z,100434.72
2022-11-24T23:20:15.396Z,100424.34
2022-11-24T23:30:19.922Z,100437.37
2022-11-24T23:40:23.118Z,100446.91
2022-11-24T23:50:27.585Z,100442.56
